createdAt,value
2023-02-15T00:00:24.834Z,101930.75
2023-02-15T00:05:26.291Z,101935.03
2023-02-15T00:10:27.746Z,101936.00
2023-02-15T00:15:29.303Z,101926.53
2023-02-15T00:20:30.738Z,101920.13
2023-02-15T00:25:32.168Z,101928.41
2023-02-15T00:30:33.641Z,101923.22
2023-02-15T00:35:35.961Z,101927.66
2023-02-15T00:40:37.869Z,101930.06
2023-02-15T00:45:39.331Z,101912.53
2023-02-15T00:50:40.839Z,101918.50
2023-02-15T00:55:42.774Z,101915.28
2023-02-15T01:00:46.885Z,101917.84
2023-02-15T01:05:49.870Z,101927.69
2023-02-15T01:10:51.562Z,101927.31
2023-02-15T01:15:56.638Z,101916.50
2023-02-15T01:20:58.502Z,101923.28
2023-02-15T01:26:04.105Z,101915.69
2023-02-15T01:31:11.141Z,101916.31
2023-02-15T01:36:12.751Z,101914.59
2023-02-15T01:41:30.533Z,101907.34
2023-02-15T01:46:39.340Z,101910.63
2023-02-15T01:51:44.296Z,101899.66
2023-02-15T01:56:47.701Z,101895.97
2023-02-15T02:01:54.401Z,101895.75
2023-02-15T02:06:58.809Z,101892.16
2023-02-15T02:12:01.241Z,101895.84
2023-02-15T02:17:21.576Z,101886.19
2023-02-15T02:22:35.632Z,101876.59
2023-02-15T02:28:08.065Z,101869.78
2023-02-15T02:33:29.540Z,101875.53
2023-02-15T02:39:08.101Z,101861.47
2023-02-15T02:44:26.363Z,101864.72
2023-02-15T02:49:46.113Z,101873.84
2023-02-15T02:54:47.709Z,101858.91
2023-02-15T02:59:51.647Z,101865.44
2023-02-15T03:05:04.979Z,101856.59
2023-02-15T03:10:08.597Z,101840.69
2023-02-15T03:15:20.347Z,101838.88
2023-02-15T03:20:27.635Z,101838.34
2023-02-15T03:25:35.653Z,101843.91
2023-02-15T03:30:40.063Z,101852.50
2023-02-15T03:35:58.544Z,101850.00
2023-02-15T03:41:12.061Z,101853.50
2023-02-15T03:46:16.572Z,101849.06
2023-02-15T03:51:38.872Z,101845.44
2023-02-15T03:57:03.510Z,101855.38
2023-02-15T04:02:20.562Z,101856.84
2023-02-15T04:07:21.990Z,101865.22
2023-02-15T04:12:24.469Z,101861.81
2023-02-15T04:17:26.883Z,101856.13
2023-02-15T04:22:46.820Z,101857.13
2023-02-15T04:27:54.703Z,101848.88
2023-02-15T04:32:58.080Z,101846.47
2023-02-15T04:37:59.875Z,101848.41
2023-02-15T04:43:01.340Z,101839.84
2023-02-15T04:48:03.244Z,101844.00
2023-02-15T04:53:04.885Z,101837.50
2023-02-15T04:58:06.386Z,101840.47
2023-02-15T05:03:07.826Z,101839.78
2023-02-15T05:08:09.446Z,101829.94
2023-02-15T05:13:11.237Z,101836.56
2023-02-15T05:22:39.348Z,101833.91
2023-02-15T05:27:59.471Z,101836.28
2023-02-15T05:33:00.897Z,101833.25
2023-02-15T05:38:02.420Z,101835.19
2023-02-15T05:43:03.910Z,101832.59
2023-02-15T05:48:05.396Z,101832.72
2023-02-15T05:53:06.857Z,101847.81
2023-02-15T05:58:08.858Z,101848.91
2023-02-15T06:03:10.394Z,101845.91
2023-02-15T06:08:11.822Z,101847.81
2023-02-15T06:13:13.343Z,101848.44
2023-02-15T06:18:15.120Z,101854.63
2023-02-15T06:23:17.057Z,101859.75
2023-02-15T06:28:18.582Z,101860.78
2023-02-15T06:33:20.052Z,101859.56
2023-02-15T06:38:22.100Z,101868.09
2023-02-15T06:43:23.627Z,101869.25
2023-02-15T06:48:26.176Z,101872.84
2023-02-15T06:53:27.653Z,101882.06
2023-02-15T06:58:29.371Z,101878.06
2023-02-15T07:03:32.707Z,101876.47
2023-02-15T07:08:34.633Z,101884.75
2023-02-15T07:13:36.165Z,101885.66
2023-02-15T07:18:38.176Z,101889.22
2023-02-15T07:23:43.850Z,101890.13
2023-02-15T07:28:45.456Z,101895.66
2023-02-15T07:33:50.010Z,101885.44
2023-02-15T07:38:51.822Z,101891.38
2023-02-15T07:43:53.310Z,101884.88
2023-02-15T07:48:54.946Z,101879.91
2023-02-15T07:53:56.425Z,101885.50
2023-02-15T07:58:59.241Z,101889.47
2023-02-15T08:04:01.015Z,101876.31
2023-02-15T08:09:06.358Z,101871.41
2023-02-15T08:14:23.045Z,101871.66
2023-02-15T08:19:30.062Z,101868.56
2023-02-15T08:24:35.220Z,101878.72
2023-02-15T08:29:38.573Z,101865.25
2023-02-15T08:34:42.699Z,101862.06
2023-02-15T08:39:44.434Z,101861.69
2023-02-15T08:44:45.988Z,101859.50
2023-02-15T08:49:47.420Z,101855.09
2023-02-15T08:54:48.897Z,101842.09
2023-02-15T08:59:51.931Z,101845.06
2023-02-15T09:04:53.747Z,101832.69
2023-02-15T09:09:56.023Z,101836.53
2023-02-15T09:14:57.495Z,101826.97
2023-02-15T09:19:59.085Z,101832.25
2023-02-15T09:25:00.646Z,101829.31
2023-02-15T09:30:02.288Z,101830.88
2023-02-15T09:35:03.926Z,101827.78
2023-02-15T09:40:06.254Z,101829.22
2023-02-15T09:45:27.126Z,101827.59
2023-02-15T09:50:48.288Z,101824.66
2023-02-15T09:56:04.085Z,101835.47
2023-02-15T10:01:08.522Z,101845.19
2023-02-15T10:06:42.819Z,101841.38
2023-02-15T10:12:18.308Z,101837.13
2023-02-15T10:17:41.711Z,101834.75
2023-02-15T10:22:51.976Z,101837.34
2023-02-15T10:27:53.562Z,101821.50
2023-02-15T10:33:01.956Z,101818.81
2023-02-15T10:38:14.759Z,101808.91
2023-02-15T10:43:56.865Z,101821.38
2023-02-15T10:49:50.941Z,101814.94
2023-02-15T10:55:08.452Z,101815.47
2023-02-15T11:00:32.097Z,101816.44
2023-02-15T11:05:45.178Z,101808.66
2023-02-15T11:11:11.989Z,101800.44
2023-02-15T11:16:22.329Z,101795.69
2023-02-15T11:21:28.533Z,101790.88
2023-02-15T11:26:35.894Z,101790.19
2023-02-15T11:31:51.180Z,101786.53
2023-02-15T11:36:56.252Z,101770.69
2023-02-15T11:42:05.591Z,101757.91
2023-02-15T11:47:12.585Z,101749.06
2023-02-15T11:52:15.885Z,101733.78
2023-02-15T11:57:41.469Z,101720.16
2023-02-15T12:02:47.881Z,101713.16
2023-02-15T12:08:18.473Z,101720.97
2023-02-15T12:13:20.762Z,101707.66
2023-02-15T12:18:34.525Z,101712.00
2023-02-15T12:23:52.085Z,101713.84
2023-02-15T12:28:55.491Z,101701.97
2023-02-15T12:34:00.808Z,101690.13
2023-02-15T12:39:08.593Z,101681.81
2023-02-15T12:44:20.817Z,101676.78
2023-02-15T12:49:22.395Z,101673.41
2023-02-15T12:54:27.095Z,101677.81
2023-02-15T12:59:28.635Z,101676.09
2023-02-15T13:04:30.480Z,101671.88
2023-02-15T13:09:35.470Z,101664.28
2023-02-15T13:14:37.704Z,101650.16
2023-02-15T13:19:46.045Z,101641.84
2023-02-15T13:24:50.994Z,101638.56
2023-02-15T13:29:59.178Z,101629.25
2023-02-15T13:35:06.136Z,101633.47
2023-02-15T13:40:11.521Z,101622.38
2023-02-15T13:45:40.682Z,101614.69
2023-02-15T13:51:08.239Z,101606.19
2023-02-15T13:56:33.357Z,101601.03
2023-02-15T14:01:53.685Z,101599.94
2023-02-15T14:07:16.189Z,101604.16
2023-02-15T14:12:36.473Z,101602.50
2023-02-15T14:18:00.879Z,101606.78
2023-02-15T14:23:11.545Z,101600.91
2023-02-15T14:28:16.229Z,101602.59
2023-02-15T14:33:37.015Z,101599.06
2023-02-15T14:39:06.845Z,101598.13
2023-02-15T14:44:17.334Z,101603.28
2023-02-15T14:49:24.267Z,101603.22
2023-02-15T14:54:25.670Z,101603.94
2023-02-15T14:59:39.763Z,101602.22
2023-02-15T15:04:56.915Z,101602.13
2023-02-15T15:10:18.645Z,101598.59
2023-02-15T15:15:32.202Z,101594.34
2023-02-15T15:20:51.815Z,101592.63
2023-02-15T15:26:22.975Z,101597.59
2023-02-15T15:31:44.984Z,101590.84
2023-02-15T15:37:02.059Z,101586.56
2023-02-15T15:42:21.790Z,101581.38
2023-02-15T15:47:23.390Z,101580.31
2023-02-15T15:52:27.064Z,101578.38
2023-02-15T15:57:45.578Z,101574.13
2023-02-15T16:02:53.944Z,101577.44
2023-02-15T16:07:55.658Z,101594.94
2023-02-15T16:12:57.370Z,101593.84
2023-02-15T16:18:00.815Z,101609.56
2023-02-15T16:23:23.703Z,101605.06
2023-02-15T16:28:25.438Z,101588.84
2023-02-15T16:33:38.076Z,101594.59
2023-02-15T16:38:42.675Z,101585.00
2023-02-15T16:43:48.095Z,101599.06
2023-02-15T16:48:55.366Z,101601.53
2023-02-15T16:54:01.472Z,101609.78
2023-02-15T16:59:04.385Z,101613.81
2023-02-15T17:04:33.226Z,101616.97
2023-02-15T17:09:35.184Z,101605.09
2023-02-15T17:14:42.432Z,101604.09
2023-02-15T17:19:50.058Z,101601.44
2023-02-15T17:24:59.437Z,101601.28
2023-02-15T17:30:14.644Z,101602.75
2023-02-15T17:35:20.511Z,101609.28
2023-02-15T17:40:30.226Z,101599.84
2023-02-15T17:45:47.917Z,101608.81
2023-02-15T17:50:49.989Z,101611.91
2023-02-15T17:55:52.294Z,101596.66
2023-02-15T18:01:16.508Z,101605.81
2023-02-15T18:06:36.412Z,101604.88
2023-02-15T18:11:40.674Z,101603.84
2023-02-15T18:16:45.619Z,101609.38
2023-02-15T18:21:47.933Z,101609.03
2023-02-15T18:26:49.751Z,101608.84
2023-02-15T18:31:56.450Z,101597.03
2023-02-15T18:36:59.905Z,101602.88
2023-02-15T18:42:01.714Z,101597.81
2023-02-15T18:47:03.192Z,101596.88
2023-02-15T18:52:04.853Z,101600.97
2023-02-15T18:57:06.265Z,101600.06
2023-02-15T19:02:13.631Z,101597.34
2023-02-15T19:07:29.872Z,101607.84
2023-02-15T19:12:31.416Z,101607.38
2023-02-15T19:17:32.827Z,101610.56
2023-02-15T19:22:34.903Z,101606.28
2023-02-15T19:27:36.431Z,101607.16
2023-02-15T19:32:37.874Z,101604.81
2023-02-15T19:37:42.468Z,101600.75
2023-02-15T19:42:44.393Z,101590.19
2023-02-15T19:47:48.062Z,101591.31
2023-02-15T19:52:51.932Z,101586.63
2023-02-15T19:57:54.847Z,101585.00
2023-02-15T20:02:59.230Z,101582.22
2023-02-15T20:08:03.947Z,101570.75
2023-02-15T20:13:05.443Z,101590.34
2023-02-15T20:18:07.628Z,101602.84
2023-02-15T20:23:21.723Z,101602.75
2023-02-15T20:28:29.550Z,101594.00
2023-02-15T20:33:31.026Z,101607.75
2023-02-15T20:38:32.874Z,101623.09
2023-02-15T20:43:34.585Z,101631.78
2023-02-15T20:48:36.269Z,101637.75
2023-02-15T20:53:37.722Z,101643.59
2023-02-15T20:58:41.789Z,101628.88
2023-02-15T21:03:43.262Z,101626.53
2023-02-15T21:08:44.981Z,101624.66
2023-02-15T21:13:48.752Z,101621.31
2023-02-15T21:18:50.171Z,101632.50
2023-02-15T21:23:53.001Z,101638.97
2023-02-15T21:28:55.163Z,101631.88
2023-02-15T21:33:56.788Z,101634.59
2023-02-15T21:38:58.396Z,101643.06
2023-02-15T21:44:18.228Z,101638.72
2023-02-15T21:49:19.651Z,101634.69
2023-02-15T21:54:21.472Z,101620.94
2023-02-15T21:59:22.922Z,101618.34
2023-02-15T22:04:29.883Z,101614.75
2023-02-15T22:09:31.341Z,101620.25
2023-02-15T22:14:39.071Z,101623.66
2023-02-15T22:19:40.525Z,101620.56
2023-02-15T22:24:42.722Z,101627.03
2023-02-15T22:29:44.301Z,101625.28
2023-02-15T22:34:46.469Z,101639.63
2023-02-15T22:39:47.948Z,101634.34
2023-02-15T22:44:49.709Z,101639.91
2023-02-15T22:49:51.642Z,101629.94
2023-02-15T22:54:53.136Z,101633.34
2023-02-15T22:59:54.871Z,101627.13
2023-02-15T23:04:56.328Z,101636.91
2023-02-15T23:09:57.755Z,101638.53
2023-02-15T23:14:59.447Z,101635.16
2023-02-15T23:20:00.855Z,101618.13
2023-02-15T23:25:02.296Z,101618.69
2023-02-15T23:30:05.936Z,101627.13
2023-02-15T23:35:17.784Z,101635.75
2023-02-15T23:40:40.235Z,101639.06
2023-02-15T23:45:41.744Z,101632.06
2023-02-15T23:50:43.780Z,101620.41
2023-02-15T23:55:45.294Z,101613.03
